Terminal Aerodrome Forecast
Issued by NWS Tampa Bay Area, FL

Home | Current Version | Previous Version | Text Only | Print | Product List | Glossary On
Versions: 1 2 3 4 5 6 7 8 9 10 11 12 13 14 15
000
FTUS42 KTBW 182300 CCA
TAFSRQ
TAF COR
KSRQ 182359Z 1900/1924 30008KT P6SM SCT040 BKN150
     FM190100 VRB04KT P6SM SCT040 BKN250
     FM190600 VRB04KT P6SM SCT030 BKN100
     FM191200 09007KT P6SM VCSH BKN040 BKN070
     FM191600 05007KT P6SM VCTS BKN035CB BKN250=

USA.gov is the U.S. government's official web portal to all federal, state and local government web resources and services.